createdAt,value
2022-12-27T00:04:12.751Z,997.3
2022-12-27T00:09:32.159Z,997.4
2022-12-27T00:14:51.266Z,997.5
2022-12-27T00:20:11.938Z,997.5
2022-12-27T00:25:29.603Z,997.6
2022-12-27T00:30:48.910Z,997.6
2022-12-27T00:36:07.812Z,997.7
2022-12-27T00:41:35.320Z,997.8
2022-12-27T00:46:46.332Z,997.8
2022-12-27T00:52:05.224Z,998
2022-12-27T00:57:24.455Z,998
2022-12-27T01:02:43.670Z,998.1
2022-12-27T01:08:03.330Z,998.2
2022-12-27T01:13:22.632Z,998.2
2022-12-27T01:18:41.784Z,998.3
2022-12-27T01:24:01.262Z,998.5
2022-12-27T01:29:21.211Z,998.6
2022-12-27T01:34:40.388Z,998.7
2022-12-27T01:39:59.518Z,998.8
2022-12-27T01:45:18.414Z,998.9
2022-12-27T01:50:37.858Z,999
2022-12-27T01:55:57.546Z,999
2022-12-27T02:01:17.426Z,999.1
2022-12-27T02:06:36.511Z,999.1
2022-12-27T02:11:55.282Z,999.2
2022-12-27T02:17:14.119Z,999.2
2022-12-27T02:22:33.196Z,999.3
2022-12-27T02:27:53.051Z,999.3
2022-12-27T02:33:12.414Z,999.4
2022-12-27T02:38:31.416Z,999.4
2022-12-27T02:43:50.229Z,999.4
2022-12-27T02:49:09.130Z,999.4
2022-12-27T02:54:28.411Z,999.5
2022-12-27T02:59:47.452Z,999.5
2022-12-27T03:05:41.237Z,999.6
2022-12-27T03:11:00.586Z,999.6
2022-12-27T03:16:20.004Z,999.5
2022-12-27T03:21:39.392Z,999.6
2022-12-27T03:26:58.320Z,999.7
2022-12-27T03:32:17.340Z,999.7
2022-12-27T03:37:36.401Z,999.7
2022-12-27T03:42:55.721Z,999.6
2022-12-27T03:48:15.287Z,999.8
2022-12-27T03:53:35.324Z,999.8
2022-12-27T03:58:54.427Z,999.9
2022-12-27T04:04:13.332Z,999.9
2022-12-27T04:09:33.018Z,999.9
2022-12-27T04:14:52.348Z,999.9
2022-12-27T04:20:11.673Z,1000
2022-12-27T04:25:30.710Z,1000
2022-12-27T04:30:49.996Z,1000
2022-12-27T04:36:09.643Z,1000
2022-12-27T04:41:28.609Z,1000
2022-12-27T04:46:48.398Z,1000
2022-12-27T04:52:07.571Z,1000
2022-12-27T04:57:26.995Z,1000
2022-12-27T05:02:46.236Z,1000.2
2022-12-27T05:08:04.904Z,1000.2
2022-12-27T05:13:24.217Z,1000.2
2022-12-27T05:18:43.435Z,1000.2
2022-12-27T05:24:05.554Z,1000.2
2022-12-27T05:29:22.453Z,1000.1
2022-12-27T05:34:41.398Z,1000.2
2022-12-27T05:40:00.745Z,1000.2
2022-12-27T05:45:19.944Z,1000.2
2022-12-27T05:50:38.960Z,1000.3
2022-12-27T05:55:58.450Z,1000.3
2022-12-27T06:01:17.962Z,1000.3
2022-12-27T06:06:37.028Z,1000.3
2022-12-27T06:11:56.502Z,1000.4
2022-12-27T06:17:15.686Z,1000.4
2022-12-27T06:22:35.277Z,1000.5
2022-12-27T06:27:54.170Z,1000.6
2022-12-27T06:33:13.547Z,1000.7
2022-12-27T06:38:33.120Z,1000.6
2022-12-27T06:43:52.132Z,1000.6
2022-12-27T06:49:11.477Z,1000.6
2022-12-27T06:54:30.706Z,1000.6
2022-12-27T06:59:53.936Z,1000.7
2022-12-27T07:05:09.681Z,1000.7
2022-12-27T07:10:28.470Z,1000.7
2022-12-27T07:15:47.929Z,1000.8
2022-12-27T07:21:07.632Z,1000.8
2022-12-27T07:26:26.793Z,1000.8
2022-12-27T07:31:46.125Z,1000.8
2022-12-27T07:37:05.333Z,1000.8
2022-12-27T07:42:24.791Z,1000.9
2022-12-27T07:47:44.350Z,1001
2022-12-27T07:53:03.698Z,1001.1
2022-12-27T07:58:23.251Z,1001.1
2022-12-27T08:03:42.601Z,1001.2
2022-12-27T08:09:01.844Z,1001.2
2022-12-27T08:14:20.676Z,1001.2
2022-12-27T08:19:39.993Z,1001.2
2022-12-27T08:24:59.016Z,1001.2
2022-12-27T08:30:18.260Z,1001.2
2022-12-27T08:35:51.955Z,1001.2
2022-12-27T08:40:56.355Z,1001.2
2022-12-27T08:46:15.518Z,1001.3
2022-12-27T08:51:40.288Z,1001.3
2022-12-27T08:56:53.732Z,1001.4
2022-12-27T09:02:12.717Z,1001.3
2022-12-27T09:07:31.630Z,1001.3
2022-12-27T09:12:50.782Z,1001.3
2022-12-27T09:18:10.497Z,1001.3
2022-12-27T09:23:30.090Z,1001.4
2022-12-27T09:28:49.295Z,1001.4
2022-12-27T09:34:08.685Z,1001.5
2022-12-27T09:39:28.067Z,1001.6
2022-12-27T09:44:47.035Z,1001.6
2022-12-27T09:50:06.654Z,1001.6
2022-12-27T09:55:26.305Z,1001.5
2022-12-27T10:00:46.294Z,1001.5
2022-12-27T10:06:04.627Z,1001.6
2022-12-27T10:11:23.885Z,1001.6
2022-12-27T10:16:42.906Z,1001.5
2022-12-27T10:22:01.785Z,1001.5
2022-12-27T10:27:20.854Z,1001.5
2022-12-27T10:32:40.125Z,1001.4
2022-12-27T10:37:59.678Z,1001.3
2022-12-27T10:43:18.752Z,1001.3
2022-12-27T10:49:11.173Z,1001.2
2022-12-27T10:54:05.539Z,1001.2
2022-12-27T10:59:16.814Z,1001.1
2022-12-27T11:04:35.761Z,1001.1
2022-12-27T11:09:55.036Z,1001.1
2022-12-27T11:15:13.846Z,1001.2
2022-12-27T11:20:33.334Z,1001.1
2022-12-27T11:25:52.245Z,1001
2022-12-27T11:31:11.805Z,1001
2022-12-27T11:36:30.890Z,1001
2022-12-27T11:41:49.830Z,1001
2022-12-27T11:47:09.003Z,1001
2022-12-27T11:52:27.957Z,1000.9
2022-12-27T11:57:47.282Z,1000.9
2022-12-27T12:03:06.613Z,1001
2022-12-27T12:08:25.756Z,1001
2022-12-27T12:13:45.246Z,1001
2022-12-27T12:19:04.408Z,1001
2022-12-27T12:24:23.755Z,1001.1
2022-12-27T12:29:43.078Z,1001.1
2022-12-27T12:35:02.282Z,1001
2022-12-27T12:40:21.833Z,1001
2022-12-27T12:45:40.034Z,1001
2022-12-27T12:50:59.582Z,1000.9
2022-12-27T12:56:19.210Z,1000.9
2022-12-27T13:01:38.970Z,1000.8
2022-12-27T13:06:58.082Z,1000.7
2022-12-27T13:12:17.305Z,1000.8
2022-12-27T13:17:36.880Z,1000.8
2022-12-27T13:22:56.059Z,1000.7
2022-12-27T13:28:15.672Z,1000.7
2022-12-27T13:33:34.810Z,1000.7
2022-12-27T13:38:53.672Z,1000.8
2022-12-27T13:44:13.092Z,1000.9
2022-12-27T13:49:32.554Z,1000.8
2022-12-27T13:54:52.077Z,1000.9
2022-12-27T14:00:10.991Z,1000.9
2022-12-27T14:05:30.079Z,1000.9
2022-12-27T14:10:50.843Z,1000.9
2022-12-27T14:16:08.889Z,1000.9
2022-12-27T14:21:28.656Z,1000.9
2022-12-27T14:26:47.089Z,1000.9
2022-12-27T14:32:06.108Z,1000.9
2022-12-27T14:37:25.848Z,1000.9
2022-12-27T14:42:45.242Z,1001
2022-12-27T14:48:04.570Z,1001
2022-12-27T14:53:24.139Z,1001
2022-12-27T14:58:43.553Z,1001.1
2022-12-27T15:04:02.781Z,1001.1
2022-12-27T15:09:21.628Z,1001
2022-12-27T15:14:41.217Z,1001
2022-12-27T15:20:00.570Z,1001.1
2022-12-27T15:25:20.721Z,1001.1
2022-12-27T15:30:39.039Z,1001
2022-12-27T15:35:58.345Z,1001
2022-12-27T15:41:18.086Z,1000.9
2022-12-27T15:46:37.372Z,1000.9
2022-12-27T15:51:57.322Z,1000.9
2022-12-27T15:57:16.468Z,1000.9
2022-12-27T16:02:34.955Z,1000.9
2022-12-27T16:07:54.335Z,1000.8
2022-12-27T16:13:13.435Z,1000.8
2022-12-27T16:18:33.356Z,1000.8
2022-12-27T16:23:52.206Z,1000.9
2022-12-27T16:29:20.293Z,1000.9
2022-12-27T16:34:31.031Z,1000.9
2022-12-27T16:39:50.231Z,1000.9
2022-12-27T16:45:09.803Z,1000.8
2022-12-27T16:50:29.451Z,1000.8
2022-12-27T16:55:48.333Z,1000.8
2022-12-27T17:01:07.452Z,1000.6
2022-12-27T17:06:34.516Z,1000.6
2022-12-27T17:11:45.628Z,1000.5
2022-12-27T17:17:04.604Z,1000.4
2022-12-27T17:22:27.357Z,1000.4
2022-12-27T17:27:43.783Z,1000.4
2022-12-27T17:33:02.834Z,1000.4
2022-12-27T17:38:22.083Z,1000.3
2022-12-27T17:43:40.776Z,1000.3
2022-12-27T17:48:59.925Z,1000.3
2022-12-27T17:54:19.194Z,1000.4
2022-12-27T17:59:38.003Z,1000.4
2022-12-27T18:04:57.535Z,1000.4
2022-12-27T18:10:16.619Z,1000.4
2022-12-27T18:15:35.587Z,1000.3
2022-12-27T18:20:54.741Z,1000.2
2022-12-27T18:26:14.543Z,1000.2
2022-12-27T18:31:34.290Z,1000.2
2022-12-27T18:36:53.938Z,1000.1
2022-12-27T18:42:13.546Z,1000.1
2022-12-27T18:47:33.412Z,1000.1
2022-12-27T18:52:55.024Z,999.9
2022-12-27T18:58:15.039Z,999.9
2022-12-27T19:03:32.755Z,999.9
2022-12-27T19:08:49.213Z,999.9
2022-12-27T19:14:08.189Z,999.9
2022-12-27T19:19:27.744Z,999.8
2022-12-27T19:24:47.243Z,999.8
2022-12-27T19:30:06.851Z,999.8
2022-12-27T19:35:25.727Z,999.8
2022-12-27T19:40:45.207Z,999.8
2022-12-27T19:46:04.738Z,999.8
2022-12-27T19:51:23.729Z,999.7
2022-12-27T19:56:42.784Z,999.6
2022-12-27T20:02:02.556Z,999.6
2022-12-27T20:07:21.433Z,999.6
2022-12-27T20:12:40.496Z,999.5
2022-12-27T20:17:59.815Z,999.4
2022-12-27T20:23:18.670Z,999.3
2022-12-27T20:28:38.334Z,999.2
2022-12-27T20:33:58.194Z,999.2
2022-12-27T20:39:16.445Z,999.1
2022-12-27T20:44:36.347Z,999.1
2022-12-27T20:50:21.238Z,999.1
2022-12-27T20:55:40.352Z,999
2022-12-27T21:00:59.997Z,999
2022-12-27T21:06:18.877Z,999.1
2022-12-27T21:11:37.705Z,999.1
2022-12-27T21:16:57.191Z,999.1
2022-12-27T21:22:15.879Z,999
2022-12-27T21:27:34.712Z,998.8
2022-12-27T21:32:54.448Z,998.8
2022-12-27T21:38:13.940Z,998.8
2022-12-27T21:43:32.837Z,998.8
2022-12-27T21:48:51.912Z,998.6
2022-12-27T21:54:11.198Z,998.6
2022-12-27T21:59:30.927Z,998.6
2022-12-27T22:04:50.543Z,998.7
2022-12-27T22:10:09.954Z,998.7
2022-12-27T22:15:29.363Z,998.5
2022-12-27T22:20:48.499Z,998.6
2022-12-27T22:26:07.516Z,998.6
2022-12-27T22:31:26.201Z,998.5
2022-12-27T22:36:45.076Z,998.5
2022-12-27T22:42:04.791Z,998.4
2022-12-27T22:47:27.123Z,998.4
2022-12-27T22:52:43.540Z,998.5
2022-12-27T22:58:03.071Z,998.4
2022-12-27T23:03:22.611Z,998.5
2022-12-27T23:08:42.342Z,998.5
2022-12-27T23:14:01.349Z,998.3
2022-12-27T23:19:20.366Z,998.2
2022-12-27T23:24:39.801Z,998.2
2022-12-27T23:29:59.337Z,998
2022-12-27T23:35:18.628Z,998
2022-12-27T23:40:38.326Z,998
2022-12-27T23:45:57.948Z,997.9
2022-12-27T23:51:17.651Z,998
2022-12-27T23:56:37.419Z,997.9
